Time;durP1;ratioP1;P1;durP2;ratioP2;P2;SDS_P1;SDS_P2;PMS_P1;PMS_P2;Temp;Humidity;BMP_temperature;BMP_pressure;BME280_temperature;BME280_humidity;BME280_pressure;Samples;Min_cycle;Max_cycle;Signal;HPM_P1;HPM_P2
2021/03/01 00:00:28;;;;;;;20.55;11.27;;;4.20;92.80;;;;;;5068047;28;20121;-56
2021/03/01 00:02:54;;;;;;;19.20;10.82;;;4.20;93.00;;;;;;5077655;28;20469;-56
2021/03/01 00:05:21;;;;;;;18.38;10.15;;;4.30;92.90;;;;;;5071715;28;20109;-56
2021/03/01 00:07:47;;;;;;;19.25;11.00;;;4.30;92.60;;;;;;5075306;28;20047;-56
2021/03/01 00:10:14;;;;;;;21.48;11.23;;;4.20;92.80;;;;;;5071520;28;20443;-57
2021/03/01 00:12:40;;;;;;;20.23;10.25;;;4.20;92.70;;;;;;5066299;28;20058;-57
2021/03/01 00:15:09;;;;;;;18.42;10.93;;;4.20;92.70;;;;;;5074943;28;20041;-57
2021/03/01 00:17:35;;;;;;;20.25;10.57;;;4.10;92.70;;;;;;5075607;28;20508;-56
2021/03/01 00:20:02;;;;;;;21.25;10.48;;;4.10;92.60;;;;;;5072170;28;20045;-57
2021/03/01 00:22:28;;;;;;;18.40;10.93;;;4.10;92.60;;;;;;5072839;28;20094;-57
2021/03/01 00:24:53;;;;;;;19.75;10.23;;;4.20;92.40;;;;;;5075218;28;20420;-56
2021/03/01 00:27:19;;;;;;;18.83;10.23;;;4.10;92.60;;;;;;5068651;28;20043;-57
2021/03/01 00:29:45;;;;;;;21.73;10.38;;;4.20;92.50;;;;;;5074167;28;20040;-57
2021/03/01 00:32:11;;;;;;;31.92;10.90;;;4.30;92.40;;;;;;5069362;28;20043;-57
2021/03/01 00:34:36;;;;;;;60.85;12.20;;;4.30;92.60;;;;;;5078722;28;20044;-58
2021/03/01 00:37:02;;;;;;;36.90;10.80;;;4.20;92.70;;;;;;5071956;28;20113;-57
2021/03/01 00:39:28;;;;;;;58.33;12.23;;;4.20;93.00;;;;;;5076775;28;20040;-57
2021/03/01 00:41:53;;;;;;;44.92;10.77;;;4.10;93.20;;;;;;5067102;28;20567;-56
2021/03/01 00:44:19;;;;;;;32.67;11.30;;;4.10;93.50;;;;;;5069542;28;20033;-53
2021/03/01 00:46:45;;;;;;;51.70;12.48;;;4.20;93.20;;;;;;5072830;28;20074;-54
2021/03/01 00:49:11;;;;;;;52.50;13.52;;;4.20;93.40;;;;;;5074600;28;20098;-58
2021/03/01 00:51:36;;;;;;;38.72;11.65;;;4.20;93.50;;;;;;5071475;28;20045;-58
2021/03/01 00:54:02;;;;;;;44.95;12.13;;;4.10;93.60;;;;;;5065123;28;20068;-57
2021/03/01 00:56:28;;;;;;;32.58;12.77;;;4.20;93.40;;;;;;5071802;28;20374;-56
2021/03/01 00:58:53;;;;;;;34.05;9.55;;;4.10;93.50;;;;;;5078319;28;20040;-56
2021/03/01 01:01:19;;;;;;;40.28;11.85;;;4.20;93.40;;;;;;5070120;28;20051;-55
2021/03/01 01:03:44;;;;;;;45.40;12.88;;;4.20;93.30;;;;;;5065148;28;20477;-56
2021/03/01 01:06:11;;;;;;;38.95;10.73;;;4.20;93.30;;;;;;5075268;28;20040;-57
2021/03/01 01:08:36;;;;;;;32.90;11.35;;;4.20;93.20;;;;;;5071587;28;20046;-56
2021/03/01 01:11:02;;;;;;;25.30;10.70;;;4.10;93.20;;;;;;5069059;28;20053;-56
2021/03/01 01:13:28;;;;;;;40.40;11.80;;;4.10;93.40;;;;;;5070722;28;20382;-57
2021/03/01 01:15:54;;;;;;;32.17;11.88;;;4.00;93.30;;;;;;5070752;28;20079;-56
2021/03/01 01:18:20;;;;;;;43.83;12.32;;;4.00;93.40;;;;;;5067933;28;20506;-58
2021/03/01 01:20:45;;;;;;;28.33;11.13;;;4.00;93.10;;;;;;5068679;28;20040;-57
2021/03/01 01:23:11;;;;;;;30.92;12.73;;;3.90;93.20;;;;;;5070238;28;20033;-55
2021/03/01 01:25:37;;;;;;;45.72;13.23;;;3.80;93.40;;;;;;5069936;28;20039;-58
2021/03/01 01:28:03;;;;;;;14.32;6.40;;;3.80;93.60;;;;;;5070283;28;20048;-58
2021/03/01 01:30:28;;;;;;;27.95;10.40;;;3.90;93.10;;;;;;5064860;28;20033;-54
2021/03/01 01:32:54;;;;;;;44.83;11.57;;;3.80;93.00;;;;;;5071717;28;20049;-56
2021/03/01 01:35:21;;;;;;;45.90;11.52;;;3.70;93.50;;;;;;5076113;28;20047;-56
2021/03/01 01:37:47;;;;;;;51.03;12.00;;;3.70;93.70;;;;;;5069596;28;20049;-55
2021/03/01 01:40:16;;;;;;;47.03;12.10;;;3.60;93.80;;;;;;5072874;28;20448;-58
2021/03/01 01:42:42;;;;;;;31.95;11.07;;;3.60;93.90;;;;;;5073182;28;20074;-57
2021/03/01 01:45:11;;;;;;;57.55;13.70;;;3.60;94.20;;;;;;5077436;28;20503;-54
2021/03/01 01:47:38;;;;;;;32.28;11.60;;;3.60;94.10;;;;;;5070199;28;20064;-55
2021/03/01 01:50:05;;;;;;;52.50;11.68;;;3.60;94.50;;;;;;5070512;28;20040;-57
2021/03/01 01:52:31;;;;;;;38.60;12.63;;;3.70;94.40;;;;;;5069383;28;20056;-57
2021/03/01 01:54:57;;;;;;;51.00;12.88;;;3.70;94.30;;;;;;5067756;28;20055;-56
2021/03/01 01:57:24;;;;;;;65.25;13.73;;;3.70;94.60;;;;;;5071216;28;20042;-57
2021/03/01 01:59:50;;;;;;;27.73;10.82;;;3.70;94.50;;;;;;5075584;28;20097;-56
2021/03/01 02:02:16;;;;;;;53.28;12.50;;;3.80;94.70;;;;;;5067795;28;20137;-58
2021/03/01 02:04:49;;;;;;;67.88;13.88;;;3.80;94.50;;;;;;5070025;28;20068;-58
2021/03/01 02:07:21;;;;;;;36.70;11.27;;;3.80;94.60;;;;;;5062783;28;20040;-55
2021/03/01 02:10:34;;;;;;;71.30;13.43;;;3.90;94.70;;;;;;5069596;28;20068;-57
2021/03/01 02:13:21;;;;;;;30.65;11.35;;;4.30;94.50;;;;;;5028702;28;20072;-58
2021/03/01 02:15:56;;;;;;;34.80;11.50;;;4.00;94.40;;;;;;5016241;28;20913;-55
2021/03/01 02:18:22;;;;;;;51.53;12.80;;;4.00;94.50;;;;;;5051652;28;20040;-56
2021/03/01 02:20:48;;;;;;;40.97;12.02;;;4.00;94.40;;;;;;5067471;28;20243;-56
2021/03/01 02:23:15;;;;;;;56.17;12.30;;;4.00;94.40;;;;;;5069462;28;20400;-55
2021/03/01 02:26:01;;;;;;;46.45;11.57;;;4.00;94.20;;;;;;5067786;28;20036;-56
2021/03/01 02:28:31;;;;;;;43.65;11.00;;;4.00;94.20;;;;;;5069580;28;20513;-57
2021/03/01 02:30:59;;;;;;;48.33;11.50;;;4.00;94.40;;;;;;5064815;28;20040;-56
2021/03/01 02:33:30;;;;;;;62.35;12.07;;;4.00;94.30;;;;;;5070097;28;20032;-58
2021/03/01 02:36:24;;;;;;;74.63;10.80;;;4.00;94.20;;;;;;5070772;28;20090;-57
2021/03/01 02:38:51;;;;;;;44.00;10.57;;;4.00;94.10;;;;;;5061204;28;20118;-53
2021/03/01 02:41:19;;;;;;;69.28;11.20;;;3.90;94.20;;;;;;5065074;28;20051;-56
2021/03/01 02:43:45;;;;;;;51.22;10.70;;;4.00;94.00;;;;;;5070987;28;20032;-58
2021/03/01 02:46:11;;;;;;;48.42;10.73;;;3.80;94.10;;;;;;5076591;28;20036;-56
2021/03/01 02:48:40;;;;;;;49.58;10.68;;;3.80;94.40;;;;;;5071846;28;20044;-56
2021/03/01 02:51:07;;;;;;;31.65;9.63;;;3.70;94.50;;;;;;5077010;28;20710;-56
2021/03/01 02:53:35;;;;;;;45.35;9.45;;;3.70;94.50;;;;;;5075327;28;20037;-59
2021/03/01 02:56:02;;;;;;;25.10;8.13;;;3.70;93.70;;;;;;5074133;28;20037;-58
2021/03/01 02:58:30;;;;;;;16.27;6.25;;;3.70;94.00;;;;;;5071686;28;20029;-58
2021/03/01 03:00:59;;;;;;;19.02;8.32;;;3.70;93.60;;;;;;5075496;28;20076;-59
2021/03/01 03:03:26;;;;;;;37.42;9.75;;;3.70;93.40;;;;;;5073152;28;20043;-57
2021/03/01 03:05:53;;;;;;;29.48;9.10;;;3.60;93.80;;;;;;5070046;28;20041;-57
2021/03/01 03:08:21;;;;;;;23.55;8.93;;;3.50;94.00;;;;;;5077512;28;20097;-56
2021/03/01 03:10:49;;;;;;;32.60;9.52;;;3.50;94.10;;;;;;5071377;28;20061;-55
2021/03/01 03:13:17;;;;;;;33.08;10.18;;;3.50;94.20;;;;;;5078646;28;20039;-58
2021/03/01 03:15:45;;;;;;;41.28;10.57;;;3.50;94.00;;;;;;5086239;28;20032;-58
2021/03/01 03:18:13;;;;;;;34.58;10.50;;;3.50;94.30;;;;;;5070522;28;20115;-57
2021/03/01 03:20:39;;;;;;;45.08;10.60;;;3.60;94.10;;;;;;5070945;28;20236;-58
2021/03/01 03:23:07;;;;;;;45.30;11.50;;;3.60;94.10;;;;;;5069016;28;20424;-57
2021/03/01 03:25:33;;;;;;;35.67;10.52;;;3.60;94.30;;;;;;5074876;28;20107;-56
2021/03/01 03:27:58;;;;;;;36.70;12.50;;;3.70;94.40;;;;;;5076005;28;20128;-58
2021/03/01 03:30:25;;;;;;;33.47;11.60;;;3.60;94.40;;;;;;5076866;28;20483;-56
2021/03/01 03:32:52;;;;;;;41.22;13.00;;;3.70;94.50;;;;;;5070748;28;20489;-56
2021/03/01 03:35:18;;;;;;;34.67;12.82;;;3.70;94.30;;;;;;5075490;28;20032;-58
2021/03/01 03:37:50;;;;;;;34.22;13.45;;;3.70;94.80;;;;;;5078747;28;20032;-55
2021/03/01 03:40:18;;;;;;;39.33;14.27;;;3.80;94.70;;;;;;5067827;28;20036;-59
2021/03/01 03:42:45;;;;;;;42.08;13.43;;;3.80;94.40;;;;;;5070920;28;20124;-56
2021/03/01 03:45:15;;;;;;;38.90;14.02;;;3.90;94.20;;;;;;5073916;28;20048;-56
2021/03/01 03:47:47;;;;;;;39.30;14.00;;;3.90;94.40;;;;;;5075564;28;20037;-56
2021/03/01 03:50:14;;;;;;;37.60;13.15;;;3.90;94.40;;;;;;5073332;28;20040;-56
2021/03/01 03:52:42;;;;;;;30.15;12.18;;;4.00;94.30;;;;;;5076140;28;20476;-55
2021/03/01 03:55:16;;;;;;;42.42;14.18;;;4.10;94.20;;;;;;5094263;28;20036;-55
2021/03/01 03:57:50;;;;;;;40.05;14.73;;;4.00;94.20;;;;;;5076041;28;20043;-54
2021/03/01 04:00:17;;;;;;;40.25;15.20;;;4.10;94.40;;;;;;5071124;28;20505;-57
2021/03/01 04:02:43;;;;;;;39.80;15.23;;;4.00;94.30;;;;;;5078693;28;20051;-58
2021/03/01 04:05:12;;;;;;;41.13;15.70;;;4.20;94.10;;;;;;5059119;28;20037;-57
2021/03/01 04:07:40;;;;;;;45.30;14.82;;;4.10;94.20;;;;;;5072852;28;20076;-54
2021/03/01 04:10:08;;;;;;;43.22;15.85;;;4.10;94.30;;;;;;5079296;28;20044;-53
2021/03/01 04:12:37;;;;;;;45.40;16.13;;;4.10;94.50;;;;;;5071571;28;20569;-55
2021/03/01 04:15:06;;;;;;;43.38;15.73;;;4.10;94.50;;;;;;5072328;28;20055;-56
2021/03/01 04:17:35;;;;;;;28.00;12.57;;;4.10;94.50;;;;;;5056821;28;20067;-55
2021/03/01 04:20:04;;;;;;;32.70;13.85;;;4.20;94.60;;;;;;5068575;28;20541;-57
2021/03/01 04:22:31;;;;;;;31.58;14.18;;;4.20;94.00;;;;;;5054242;28;20476;-55
2021/03/01 04:24:58;;;;;;;25.05;9.43;;;4.30;94.00;;;;;;5077349;28;20097;-57
2021/03/01 04:27:23;;;;;;;34.10;13.43;;;4.30;94.00;;;;;;5070425;28;20482;-57
2021/03/01 04:29:50;;;;;;;35.38;13.65;;;4.40;93.80;;;;;;5072291;28;20053;-57
2021/03/01 04:32:16;;;;;;;46.85;15.68;;;4.30;94.00;;;;;;5064647;28;20037;-55
2021/03/01 04:34:43;;;;;;;36.70;13.55;;;4.30;94.10;;;;;;5067354;28;20090;-56
2021/03/01 04:37:08;;;;;;;40.05;14.68;;;4.30;94.20;;;;;;5068126;28;20044;-56
2021/03/01 04:39:34;;;;;;;38.22;13.90;;;4.30;94.10;;;;;;5073294;28;20078;-58
2021/03/01 04:42:01;;;;;;;34.13;15.02;;;4.40;94.10;;;;;;5070826;28;20036;-56
2021/03/01 04:44:28;;;;;;;33.88;13.27;;;4.30;94.00;;;;;;5068884;28;20079;-55
2021/03/01 04:46:55;;;;;;;41.40;14.68;;;4.20;94.10;;;;;;5064770;28;20048;-56
2021/03/01 04:49:22;;;;;;;39.85;14.57;;;4.30;94.20;;;;;;5074201;28;20072;-55
2021/03/01 04:51:49;;;;;;;38.55;14.85;;;4.30;94.40;;;;;;5074156;28;20041;-57
2021/03/01 04:54:15;;;;;;;38.08;13.98;;;4.40;94.30;;;;;;5070271;28;20036;-55
2021/03/01 04:56:45;;;;;;;39.75;14.45;;;4.50;93.70;;;;;;5066982;28;20573;-55
2021/03/01 04:59:14;;;;;;;34.55;14.93;;;4.40;93.90;;;;;;5070455;28;20117;-56
2021/03/01 05:01:42;;;;;;;36.50;13.50;;;4.40;94.00;;;;;;5071750;28;20072;-58
2021/03/01 05:04:08;;;;;;;33.70;13.27;;;4.50;94.00;;;;;;5069182;28;20103;-58
2021/03/01 05:06:34;;;;;;;29.75;12.65;;;4.70;93.90;;;;;;5069348;28;20556;-58
2021/03/01 05:09:01;;;;;;;41.80;12.48;;;4.70;93.70;;;;;;5072517;28;20067;-57
2021/03/01 05:11:33;;;;;;;35.67;13.18;;;4.60;93.50;;;;;;5066486;28;20082;-58
2021/03/01 05:14:00;;;;;;;32.80;12.15;;;4.50;93.90;;;;;;5070664;28;20049;-58
2021/03/01 05:16:26;;;;;;;34.83;12.70;;;4.50;94.00;;;;;;5070059;28;20135;-57
2021/03/01 05:18:52;;;;;;;27.42;10.82;;;4.70;93.30;;;;;;5072496;28;20402;-57
2021/03/01 05:21:18;;;;;;;26.10;11.40;;;4.70;93.40;;;;;;5067873;28;20122;-57
2021/03/01 05:23:44;;;;;;;22.17;7.97;;;4.60;93.40;;;;;;5076333;28;20045;-57
2021/03/01 05:26:11;;;;;;;29.45;11.70;;;4.60;93.50;;;;;;5074461;28;20123;-57
2021/03/01 05:28:37;;;;;;;25.23;10.60;;;4.60;93.10;;;;;;5062548;28;20480;-56
2021/03/01 05:31:04;;;;;;;32.83;11.88;;;4.60;93.20;;;;;;5066785;28;20128;-57
2021/03/01 05:33:30;;;;;;;26.20;11.68;;;4.50;93.50;;;;;;5072212;28;20534;-58
2021/03/01 05:35:56;;;;;;;30.13;10.25;;;4.40;93.60;;;;;;5066024;28;20040;-58
2021/03/01 05:38:22;;;;;;;27.25;10.85;;;4.50;94.10;;;;;;5070753;28;20043;-57
2021/03/01 05:40:48;;;;;;;28.00;9.40;;;4.50;93.70;;;;;;5072009;28;20051;-57
2021/03/01 05:43:14;;;;;;;25.92;10.68;;;4.50;94.00;;;;;;5072110;28;20040;-57
2021/03/01 05:45:42;;;;;;;27.13;10.48;;;4.60;93.50;;;;;;5067834;28;20041;-58
2021/03/01 05:48:10;;;;;;;18.90;7.78;;;4.60;93.40;;;;;;5069963;28;20081;-59
2021/03/01 05:50:40;;;;;;;30.40;10.20;;;4.70;93.40;;;;;;5063078;28;20070;-59
2021/03/01 05:53:08;;;;;;;26.80;10.73;;;4.60;93.40;;;;;;5066410;28;20043;-55
2021/03/01 05:55:34;;;;;;;29.88;11.75;;;4.60;93.60;;;;;;5069454;28;20048;-58
2021/03/01 05:58:01;;;;;;;26.70;10.40;;;4.60;93.80;;;;;;5070565;28;20036;-58
2021/03/01 06:00:28;;;;;;;24.10;9.05;;;4.60;93.70;;;;;;5073093;28;20044;-58
2021/03/01 06:02:57;;;;;;;31.35;10.05;;;4.70;93.50;;;;;;5067692;28;20049;-58
2021/03/01 06:05:24;;;;;;;23.83;9.13;;;4.80;93.20;;;;;;5076640;28;20047;-57
2021/03/01 06:07:54;;;;;;;25.35;8.90;;;4.70;93.30;;;;;;5076644;28;20052;-58
2021/03/01 06:10:20;;;;;;;27.45;9.38;;;4.60;93.40;;;;;;5073602;28;20037;-58
2021/03/01 06:12:46;;;;;;;21.15;9.27;;;4.70;93.50;;;;;;5069450;28;20044;-59
2021/03/01 06:15:13;;;;;;;23.90;9.80;;;4.70;93.60;;;;;;5081252;28;20047;-59
2021/03/01 06:17:38;;;;;;;30.58;10.93;;;4.70;93.70;;;;;;5068428;28;20037;-59
2021/03/01 06:20:05;;;;;;;25.25;10.77;;;4.60;93.70;;;;;;5071494;28;20044;-59
2021/03/01 06:22:45;;;;;;;29.67;10.48;;;4.60;93.70;;;;;;5076757;28;20046;-59
2021/03/01 06:25:16;;;;;;;23.23;10.02;;;4.60;93.80;;;;;;5076239;28;20036;-59
2021/03/01 06:27:50;;;;;;;19.85;8.50;;;4.70;93.40;;;;;;5079449;28;20040;-59
2021/03/01 06:30:18;;;;;;;23.88;9.30;;;4.70;93.30;;;;;;5077286;28;20040;-59
2021/03/01 06:33:17;;;;;;;22.40;9.55;;;4.70;93.40;;;;;;5076611;28;20124;-59
2021/03/01 06:35:52;;;;;;;27.55;10.80;;;4.70;93.30;;;;;;5070677;28;20123;-58
2021/03/01 06:38:23;;;;;;;25.00;9.98;;;4.70;93.40;;;;;;5050572;28;20066;-59
2021/03/01 06:41:10;;;;;;;26.35;10.90;;;4.70;93.50;;;;;;5071641;28;20505;-59
2021/03/01 06:43:51;;;;;;;27.27;10.73;;;4.60;93.70;;;;;;5067614;28;20130;-59
2021/03/01 06:46:17;;;;;;;23.48;8.88;;;4.70;93.70;;;;;;5064437;28;20505;-55
2021/03/01 06:48:42;;;;;;;22.40;10.23;;;4.70;93.50;;;;;;5068626;28;20037;-57
2021/03/01 06:51:09;;;;;;;25.85;9.20;;;4.80;93.40;;;;;;5070254;28;20051;-59
2021/03/01 06:53:36;;;;;;;20.55;8.73;;;4.70;93.40;;;;;;5062986;28;20147;-58
2021/03/01 06:56:16;;;;;;;21.42;8.35;;;4.70;93.60;;;;;;5069529;28;20037;-59
2021/03/01 06:58:46;;;;;;;20.27;8.90;;;4.70;93.40;;;;;;5067642;28;20039;-56
2021/03/01 07:01:13;;;;;;;25.42;8.88;;;4.80;93.40;;;;;;5065339;28;20108;-58
2021/03/01 07:03:41;;;;;;;21.77;9.05;;;4.80;93.10;;;;;;5068091;28;20044;-58
2021/03/01 07:06:08;;;;;;;26.20;9.13;;;4.80;93.20;;;;;;5072547;28;20090;-59
2021/03/01 07:08:54;;;;;;;24.33;9.18;;;4.80;93.40;;;;;;5069755;28;20396;-60
2021/03/01 07:11:34;;;;;;;27.55;9.68;;;4.80;93.40;;;;;;5070735;28;20040;-60
2021/03/01 07:14:03;;;;;;;21.25;8.25;;;4.80;93.50;;;;;;5067616;28;20554;-55
2021/03/01 07:16:39;;;;;;;21.95;8.65;;;4.90;93.60;;;;;;5071894;28;20033;-60
2021/03/01 07:19:09;;;;;;;21.50;7.53;;;5.00;93.10;;;;;;5071188;28;20093;-57
2021/03/01 07:21:37;;;;;;;20.33;8.02;;;5.00;92.70;;;;;;5070615;28;20054;-53
2021/03/01 07:24:04;;;;;;;24.20;8.75;;;5.00;92.90;;;;;;5064683;28;20421;-56
2021/03/01 07:26:30;;;;;;;17.58;7.85;;;4.90;93.10;;;;;;5068739;28;20550;-54
2021/03/01 07:29:05;;;;;;;27.25;8.82;;;5.00;93.00;;;;;;5073436;28;20045;-55
2021/03/01 07:31:34;;;;;;;22.98;7.65;;;5.00;92.80;;;;;;5072284;28;20064;-55
2021/03/01 07:34:04;;;;;;;17.25;7.20;;;5.10;92.50;;;;;;5072452;28;20451;-58
2021/03/01 07:36:31;;;;;;;14.23;6.78;;;5.10;92.50;;;;;;5070114;28;20126;-55
2021/03/01 07:39:02;;;;;;;17.75;7.00;;;5.20;92.00;;;;;;5070558;28;20414;-55
2021/03/01 07:41:28;;;;;;;24.52;7.90;;;5.30;91.80;;;;;;5066654;28;20044;-58
2021/03/01 07:43:55;;;;;;;22.88;8.20;;;5.30;91.60;;;;;;5060743;28;20033;-57
2021/03/01 07:46:27;;;;;;;18.27;7.60;;;5.30;91.90;;;;;;5060242;28;20094;-53
2021/03/01 07:48:53;;;;;;;21.30;7.93;;;5.20;92.20;;;;;;5062564;28;20041;-55
2021/03/01 07:51:43;;;;;;;21.10;8.05;;;5.30;92.00;;;;;;5081401;28;20453;-56
2021/03/01 07:54:10;;;;;;;27.30;7.90;;;5.30;92.10;;;;;;5059948;28;20535;-55
2021/03/01 07:56:39;;;;;;;21.88;7.40;;;5.30;92.30;;;;;;5065984;28;20095;-56
2021/03/01 07:59:08;;;;;;;23.45;7.57;;;5.40;92.10;;;;;;5065671;28;20086;-55
2021/03/01 08:01:36;;;;;;;19.63;7.50;;;5.40;92.00;;;;;;5061714;28;20037;-52
2021/03/01 08:04:02;;;;;;;16.67;7.05;;;5.40;91.90;;;;;;5065990;28;20548;-53
2021/03/01 08:06:55;;;;;;;19.85;7.93;;;5.40;92.10;;;;;;5057619;28;20107;-54
2021/03/01 08:09:40;;;;;;;;;;;5.50;91.60;;;;;;5057384;28;20071;-55
2021/03/01 08:12:06;;;;;;;17.45;7.25;;;5.50;91.50;;;;;;5061614;28;19916;-53
2021/03/01 08:14:51;;;;;;;18.80;7.30;;;5.40;91.90;;;;;;5060689;28;20048;-54
2021/03/01 08:17:25;;;;;;;21.33;8.35;;;5.50;91.70;;;;;;5077965;28;20048;-57
2021/03/01 08:19:55;;;;;;;21.55;7.78;;;5.50;91.60;;;;;;5075474;28;20143;-57
2021/03/01 08:22:21;;;;;;;22.90;8.18;;;5.50;91.90;;;;;;5071340;28;20064;-56
2021/03/01 08:24:48;;;;;;;20.58;8.07;;;5.60;92.00;;;;;;5074120;28;20121;-57
2021/03/01 08:27:26;;;;;;;25.90;8.68;;;5.60;91.80;;;;;;5064801;28;20507;-57
2021/03/01 08:30:20;;;;;;;24.88;8.60;;;5.70;91.90;;;;;;5070629;28;20041;-55
2021/03/01 08:33:08;;;;;;;18.95;8.20;;;5.70;91.80;;;;;;5066166;28;20072;-53
2021/03/01 08:36:00;;;;;;;23.10;8.18;;;5.70;91.90;;;;;;5070631;28;20074;-57
2021/03/01 08:38:47;;;;;;;24.30;8.98;;;5.80;91.10;;;;;;5076524;28;21709;-56
2021/03/01 08:41:15;;;;;;;18.30;8.27;;;5.90;90.90;;;;;;5069337;28;20421;-57
2021/03/01 08:43:48;;;;;;;17.60;7.55;;;5.80;90.90;;;;;;5063746;28;20087;-57
2021/03/01 08:46:13;;;;;;;19.58;7.70;;;5.90;91.00;;;;;;5055660;28;20072;-58
2021/03/01 08:48:44;;;;;;;22.73;7.80;;;5.90;91.00;;;;;;5072238;28;20067;-60
2021/03/01 08:51:10;;;;;;;22.10;7.78;;;5.90;91.30;;;;;;5074275;28;20043;-59
2021/03/01 08:53:36;;;;;;;19.80;7.43;;;5.90;91.30;;;;;;5064570;28;20044;-60
2021/03/01 08:56:02;;;;;;;18.77;8.38;;;6.10;90.50;;;;;;5073980;28;20036;-61
2021/03/01 08:58:30;;;;;;;21.75;7.32;;;6.20;89.40;;;;;;5068321;28;20052;-60
2021/03/01 09:00:59;;;;;;;20.65;7.15;;;6.20;89.10;;;;;;5070607;28;20074;-61
2021/03/01 09:03:34;;;;;;;17.02;6.65;;;6.20;89.50;;;;;;5069709;28;20492;-61
2021/03/01 09:06:17;;;;;;;19.10;7.30;;;6.20;88.30;;;;;;5071046;28;20131;-60
2021/03/01 09:08:46;;;;;;;14.82;6.00;;;6.10;89.20;;;;;;5075906;28;20036;-60
2021/03/01 09:11:21;;;;;;;14.75;5.88;;;6.20;89.30;;;;;;5067137;28;20040;-60
2021/03/01 09:13:49;;;;;;;18.70;7.03;;;6.20;89.30;;;;;;5065064;28;20045;-61
2021/03/01 09:16:17;;;;;;;19.55;6.32;;;6.20;89.70;;;;;;5068484;28;20049;-61
2021/03/01 09:18:46;;;;;;;15.18;5.68;;;6.30;88.90;;;;;;5074193;28;20673;-60
2021/03/01 09:21:17;;;;;;;20.20;6.53;;;6.30;89.10;;;;;;5070541;28;20036;-61
2021/03/01 09:23:54;;;;;;;19.75;7.10;;;6.30;88.70;;;;;;5070343;28;20068;-60
2021/03/01 09:26:28;;;;;;;20.30;6.50;;;6.40;89.10;;;;;;5045956;28;20049;-60
2021/03/01 09:28:57;;;;;;;21.25;6.18;;;6.50;88.60;;;;;;5070497;28;20040;-60
2021/03/01 09:31:23;;;;;;;16.58;6.32;;;6.60;87.30;;;;;;5071839;28;20036;-60
2021/03/01 09:33:50;;;;;;;14.20;5.90;;;6.60;87.20;;;;;;5065024;28;20045;-59
2021/03/01 09:36:17;;;;;;;19.73;5.95;;;6.70;87.40;;;;;;5069160;28;20485;-59
2021/03/01 09:38:50;;;;;;;15.80;5.55;;;6.80;87.60;;;;;;5065300;28;20037;-60
2021/03/01 09:41:15;;;;;;;19.58;6.65;;;6.90;85.80;;;;;;5071383;28;20061;-58
2021/03/01 09:43:44;;;;;;;14.73;5.32;;;7.00;86.50;;;;;;5069352;28;20044;-60
2021/03/01 09:46:11;;;;;;;20.55;6.55;;;7.10;85.90;;;;;;5073177;28;20032;-60
2021/03/01 09:48:47;;;;;;;18.67;7.10;;;7.30;86.60;;;;;;5067878;28;20041;-59
2021/03/01 09:51:14;;;;;;;16.35;6.75;;;7.50;85.90;;;;;;5072271;28;20055;-59
2021/03/01 09:53:40;;;;;;;18.48;6.63;;;7.60;85.30;;;;;;5072444;28;20123;-56
2021/03/01 09:56:06;;;;;;;15.52;5.80;;;7.70;85.50;;;;;;5072797;28;20047;-57
2021/03/01 09:58:42;;;;;;;16.05;6.50;;;7.80;82.10;;;;;;5071331;28;20467;-58
2021/03/01 10:01:16;;;;;;;16.15;5.80;;;7.80;81.60;;;;;;5072287;28;20051;-58
2021/03/01 10:03:43;;;;;;;15.43;6.13;;;7.70;81.90;;;;;;5069529;28;20033;-57
2021/03/01 10:06:11;;;;;;;18.45;6.57;;;7.70;82.50;;;;;;5070475;28;20048;-58
2021/03/01 10:08:38;;;;;;;15.32;6.20;;;7.70;82.70;;;;;;5069740;28;20036;-59
2021/03/01 10:11:04;;;;;;;13.68;5.25;;;7.70;81.70;;;;;;5081022;28;20047;-57
2021/03/01 10:13:34;;;;;;;17.17;6.60;;;7.70;81.70;;;;;;5067039;28;20076;-58
2021/03/01 10:16:03;;;;;;;20.75;5.65;;;7.70;81.90;;;;;;5065984;28;20036;-59
2021/03/01 10:18:31;;;;;;;15.80;5.05;;;7.70;82.60;;;;;;5069782;28;20041;-59
2021/03/01 10:21:06;;;;;;;15.98;5.72;;;7.80;80.70;;;;;;5064000;28;20492;-58
2021/03/01 10:23:41;;;;;;;15.02;5.40;;;7.80;81.00;;;;;;5067921;28;20040;-58
2021/03/01 10:26:18;;;;;;;14.75;5.25;;;7.80;80.90;;;;;;5068578;28;20074;-58
2021/03/01 10:28:52;;;;;;;13.88;4.88;;;7.90;81.60;;;;;;5070225;28;20545;-59
2021/03/01 10:31:21;;;;;;;11.00;4.65;;;7.90;81.00;;;;;;5067143;28;20068;-59
2021/03/01 10:33:55;;;;;;;15.52;5.72;;;7.90;79.80;;;;;;5069019;28;20385;-57
2021/03/01 10:36:22;;;;;;;13.35;5.53;;;8.00;80.90;;;;;;5063053;28;20049;-58
2021/03/01 10:39:09;;;;;;;12.05;5.68;;;8.00;80.30;;;;;;5067738;28;20051;-57
2021/03/01 10:41:51;;;;;;;14.35;6.20;;;8.00;79.80;;;;;;5065516;28;20068;-57
2021/03/01 10:44:25;;;;;;;14.05;4.75;;;8.00;79.60;;;;;;5072862;28;20402;-57
2021/03/01 10:46:51;;;;;;;13.75;5.10;;;7.90;80.00;;;;;;5069231;28;20044;-59
2021/03/01 10:49:29;;;;;;;11.90;5.68;;;8.00;80.30;;;;;;5065947;28;20173;-57
2021/03/01 10:51:58;;;;;;;13.05;5.25;;;8.00;78.40;;;;;;5069005;28;20040;-59
2021/03/01 10:54:25;;;;;;;15.85;5.68;;;8.00;79.60;;;;;;5069879;28;20067;-57
2021/03/01 10:56:51;;;;;;;17.20;6.40;;;8.20;81.20;;;;;;5071747;28;20127;-60
2021/03/01 10:59:17;;;;;;;16.80;6.70;;;8.20;80.00;;;;;;5074516;28;20564;-58
2021/03/01 11:01:44;;;;;;;15.27;6.28;;;8.30;79.70;;;;;;5061997;28;20432;-58
2021/03/01 11:04:14;;;;;;;18.17;7.50;;;8.40;79.30;;;;;;5074746;28;20112;-57
2021/03/01 11:06:41;;;;;;;20.95;7.60;;;8.40;79.20;;;;;;5069540;28;20028;-58
2021/03/01 11:09:09;;;;;;;16.27;7.03;;;8.40;79.40;;;;;;5068178;28;20492;-57
2021/03/01 11:11:36;;;;;;;13.55;5.55;;;8.30;78.40;;;;;;5063931;28;20498;-60
2021/03/01 11:14:02;;;;;;;16.77;7.10;;;8.40;78.30;;;;;;5055575;28;20119;-58
2021/03/01 11:16:28;;;;;;;15.35;6.55;;;8.30;78.90;;;;;;5072077;28;20098;-57
2021/03/01 11:18:54;;;;;;;15.50;5.35;;;8.30;79.60;;;;;;5066400;28;20044;-59
2021/03/01 11:21:20;;;;;;;13.27;6.18;;;8.30;78.90;;;;;;5070052;28;20051;-60
2021/03/01 11:23:46;;;;;;;17.52;7.55;;;8.40;78.80;;;;;;5068922;28;20048;-59
2021/03/01 11:26:15;;;;;;;17.42;6.95;;;8.40;79.80;;;;;;5069215;28;20036;-58
2021/03/01 11:28:42;;;;;;;14.65;6.45;;;8.40;79.20;;;;;;5060744;28;20519;-59
2021/03/01 11:31:07;;;;;;;15.32;6.13;;;8.50;78.10;;;;;;5069137;28;20036;-59
2021/03/01 11:33:33;;;;;;;16.73;5.93;;;8.50;76.80;;;;;;5067385;28;20037;-57
2021/03/01 11:35:59;;;;;;;13.98;5.72;;;8.60;76.70;;;;;;5072591;28;20048;-56
2021/03/01 11:38:26;;;;;;;12.77;5.43;;;8.60;77.20;;;;;;5074027;28;20238;-57
2021/03/01 11:40:52;;;;;;;10.27;5.07;;;8.70;75.60;;;;;;5084802;28;20488;-58
2021/03/01 11:43:18;;;;;;;14.68;5.35;;;8.70;76.00;;;;;;5071007;28;20033;-57
2021/03/01 11:45:44;;;;;;;17.45;6.13;;;8.80;76.30;;;;;;5073031;28;20048;-58
2021/03/01 11:48:13;;;;;;;12.98;6.03;;;8.80;76.30;;;;;;5072482;28;20044;-58
2021/03/01 11:50:44;;;;;;;17.27;5.47;;;8.80;76.60;;;;;;5061435;28;20032;-57
2021/03/01 11:53:12;;;;;;;17.98;5.93;;;8.90;76.10;;;;;;5081188;28;20040;-58
2021/03/01 11:55:38;;;;;;;10.95;5.32;;;8.90;76.60;;;;;;5076700;28;20052;-59
2021/03/01 11:58:04;;;;;;;13.23;4.78;;;9.00;76.40;;;;;;5076991;28;20040;-57
2021/03/01 12:00:29;;;;;;;11.75;4.63;;;9.00;73.30;;;;;;5077691;28;20090;-59
2021/03/01 12:02:55;;;;;;;10.45;4.78;;;9.10;72.10;;;;;;5079852;28;20044;-58
2021/03/01 12:05:21;;;;;;;14.05;5.32;;;9.10;72.50;;;;;;5065694;28;20119;-57
2021/03/01 12:07:47;;;;;;;11.85;5.45;;;9.10;72.40;;;;;;5074104;28;20517;-56
2021/03/01 12:10:13;;;;;;;10.68;4.40;;;9.10;73.10;;;;;;5083812;28;20123;-59
2021/03/01 12:12:39;;;;;;;12.45;4.65;;;9.30;70.70;;;;;;5079796;28;20447;-56
2021/03/01 12:15:07;;;;;;;10.95;4.63;;;9.30;70.20;;;;;;5068035;28;20041;-57
2021/03/01 12:17:33;;;;;;;12.00;5.15;;;9.20;71.80;;;;;;5072460;28;20052;-59
2021/03/01 12:19:59;;;;;;;12.40;5.45;;;9.30;71.30;;;;;;5055548;28;20492;-59
2021/03/01 12:22:25;;;;;;;11.05;4.75;;;9.40;71.00;;;;;;5073533;28;20055;-58
2021/03/01 12:24:51;;;;;;;16.05;4.95;;;9.30;72.50;;;;;;5071768;28;20047;-59
2021/03/01 12:27:17;;;;;;;14.40;5.20;;;9.30;73.30;;;;;;5064264;28;20044;-58
2021/03/01 12:29:43;;;;;;;15.35;4.90;;;9.50;72.20;;;;;;5071871;28;20072;-54
2021/03/01 12:32:09;;;;;;;12.90;5.07;;;9.60;72.20;;;;;;5071332;28;20056;-57
2021/03/01 12:34:38;;;;;;;10.57;4.28;;;9.60;71.90;;;;;;5068944;28;20032;-55
2021/03/01 12:37:04;;;;;;;10.82;5.10;;;9.50;70.60;;;;;;5062111;28;20085;-58
2021/03/01 12:39:30;;;;;;;12.15;4.75;;;9.60;70.70;;;;;;5085992;28;20047;-55
2021/03/01 12:41:56;;;;;;;9.73;5.13;;;9.60;70.30;;;;;;5075692;28;20040;-58
2021/03/01 12:44:21;;;;;;;13.55;5.15;;;9.60;70.00;;;;;;5084580;28;20063;-58
2021/03/01 12:46:47;;;;;;;13.40;5.47;;;9.70;70.20;;;;;;5071777;28;20793;-58
2021/03/01 12:49:14;;;;;;;14.13;5.00;;;9.80;71.00;;;;;;5071687;28;20043;-58
2021/03/01 12:51:40;;;;;;;15.55;5.10;;;9.80;70.50;;;;;;5078873;28;20364;-59